Time;durP1;ratioP1;P1;durP2;ratioP2;P2;SDS_P1;SDS_P2;PMS_P1;PMS_P2;Temp;Humidity;BMP_temperature;BMP_pressure;BME280_temperature;BME280_humidity;BME280_pressure;Samples;Min_cycle;Max_cycle;Signal;HPM_P1;HPM_P2
2020/12/15 00:02:26;;;;;;;3.90;2.30;;;;;;;5.43;90.00;96478.00;5054548;28;20253;-94
2020/12/15 00:04:54;;;;;;;3.27;2.60;;;;;;;5.45;90.25;96492.56;5053991;28;20194;-94
2020/12/15 00:07:21;;;;;;;1.37;1.27;;;;;;;5.38;90.63;96491.41;5053841;28;20198;-94
2020/12/15 00:09:47;;;;;;;3.20;2.00;;;;;;;5.40;90.46;96489.50;5054075;28;20267;-94
2020/12/15 00:12:14;;;;;;;1.70;1.60;;;;;;;5.37;90.05;96489.75;5053866;28;20212;-94
2020/12/15 00:14:41;;;;;;;1.63;1.30;;;;;;;5.37;90.36;96483.69;5053814;28;20193;-94
2020/12/15 00:17:08;;;;;;;1.87;1.70;;;;;;;5.31;90.64;96471.97;5053519;28;20198;-93
2020/12/15 00:19:35;;;;;;;2.07;1.87;;;;;;;5.34;90.85;96443.06;5053928;28;20233;-93
2020/12/15 00:22:03;;;;;;;2.00;1.90;;;;;;;5.29;91.28;96473.03;5053618;28;20206;-94
2020/12/15 00:24:30;;;;;;;3.03;1.90;;;;;;;5.37;90.34;96457.63;5053394;28;20253;-95
2020/12/15 00:26:57;;;;;;;2.23;1.93;;;;;;;5.38;90.65;96449.69;5053348;28;20289;-94
2020/12/15 00:29:24;;;;;;;2.50;1.90;;;;;;;5.39;90.57;96456.56;5265742;23;20234;-92
2020/12/15 00:31:50;;;;;;;1.53;1.43;;;;;;;5.37;90.11;96466.28;5051505;28;20225;-92
2020/12/15 00:34:17;;;;;;;1.60;1.50;;;;;;;5.41;90.21;96477.31;5052975;28;20229;-91
2020/12/15 00:36:50;;;;;;;1.40;1.30;;;;;;;5.41;89.23;96475.53;5052563;28;20542;-91
2020/12/15 00:39:18;;;;;;;1.60;1.50;;;;;;;5.43;90.35;96489.25;5052979;28;20204;-91
2020/12/15 00:41:48;;;;;;;2.53;1.40;;;;;;;5.35;89.97;96477.78;5053393;28;20194;-92
2020/12/15 00:44:15;;;;;;;1.63;1.53;;;;;;;5.40;90.11;96480.84;5053295;28;20210;-92
2020/12/15 00:46:42;;;;;;;1.20;1.20;;;;;;;5.44;89.96;96490.91;5053049;28;20232;-92
2020/12/15 00:49:09;;;;;;;1.50;1.40;;;;;;;5.41;89.61;96485.94;5053384;28;20589;-92
2020/12/15 00:51:36;;;;;;;1.50;1.40;;;;;;;5.42;88.78;96494.59;5052420;28;20259;-92
2020/12/15 00:54:03;;;;;;;1.60;1.50;;;;;;;5.41;89.08;96492.94;5053170;28;20661;-92
2020/12/15 00:56:31;;;;;;;1.47;1.37;;;;;;;5.52;88.92;96510.34;5053244;28;20205;-92
2020/12/15 00:58:58;;;;;;;1.67;1.57;;;;;;;5.33;88.86;96509.16;5052889;28;20194;-92
2020/12/15 01:01:25;;;;;;;1.50;1.40;;;;;;;5.40;89.79;96497.31;5052918;28;20201;-92
2020/12/15 01:03:52;;;;;;;1.40;1.30;;;;;;;5.47;89.57;96505.47;5053039;28;20701;-92
2020/12/15 01:06:19;;;;;;;1.63;1.53;;;;;;;5.40;89.09;96499.06;5053063;28;20292;-92
2020/12/15 01:08:46;;;;;;;1.70;1.60;;;;;;;5.40;89.79;96504.28;5053071;28;20732;-92
2020/12/15 01:11:13;;;;;;;1.47;1.37;;;;;;;5.38;90.40;96504.44;5052679;28;20197;-92
2020/12/15 01:13:40;;;;;;;1.40;1.30;;;;;;;5.41;90.60;96521.63;5052927;28;20198;-92
2020/12/15 01:16:08;;;;;;;1.53;1.43;;;;;;;5.32;90.88;96511.91;5053074;28;20229;-91
2020/12/15 01:18:35;;;;;;;1.57;1.47;;;;;;;5.31;91.07;96520.66;5052874;28;20636;-92
2020/12/15 01:21:02;;;;;;;2.30;2.10;;;;;;;5.42;90.88;96528.47;5052645;28;20201;-92
2020/12/15 01:23:29;;;;;;;1.70;1.60;;;;;;;5.46;90.73;96522.88;5052312;28;20217;-92
2020/12/15 01:25:56;;;;;;;1.50;1.40;;;;;;;5.34;90.96;96516.03;5052599;28;20248;-92
2020/12/15 01:28:23;;;;;;;1.93;1.80;;;;;;;5.39;90.98;96513.91;5052700;28;20233;-92
2020/12/15 01:30:51;;;;;;;2.33;2.07;;;;;;;5.36;91.01;96510.69;5052645;28;20230;-91
2020/12/15 01:33:30;;;;;;;2.30;2.10;;;;;;;5.36;90.88;96510.69;5052601;28;20202;-91
2020/12/15 01:35:57;;;;;;;2.23;2.03;;;;;;;5.36;90.46;96521.13;5052613;28;20237;-91
2020/12/15 01:38:23;;;;;;;2.00;1.90;;;;;;;5.31;91.11;96516.28;5052798;28;20195;-92
2020/12/15 01:40:51;;;;;;;2.30;2.10;;;;;;;5.36;90.75;96501.09;5052690;28;20280;-91
2020/12/15 01:43:18;;;;;;;2.27;2.17;;;;;;;5.33;91.12;96509.16;5052655;28;20660;-91
2020/12/15 01:45:45;;;;;;;3.10;2.67;;;;;;;5.32;90.96;96501.47;5052326;28;20204;-92
2020/12/15 01:48:13;;;;;;;2.47;2.27;;;;;;;5.34;91.60;96505.63;5052535;28;20223;-92
2020/12/15 01:50:40;;;;;;;3.30;3.00;;;;;;;5.35;91.22;96503.84;5052398;28;20202;-91
2020/12/15 01:53:10;;;;;;;2.37;2.17;;;;;;;5.40;91.30;96489.50;5052306;28;20212;-91
2020/12/15 01:55:38;;;;;;;2.60;2.40;;;;;;;5.39;91.36;96493.03;5052257;28;20194;-92
2020/12/15 01:58:05;;;;;;;2.93;2.60;;;;;;;5.43;91.89;96514.47;5052344;28;20293;-92
2020/12/15 02:00:32;;;;;;;3.50;2.83;;;;;;;5.42;90.90;96507.63;5052566;28;20697;-91
2020/12/15 02:02:59;;;;;;;3.93;2.90;;;;;;;5.43;90.32;96506.66;5055440;28;20218;-92
2020/12/15 02:05:27;;;;;;;3.33;3.00;;;;;;;5.42;91.28;96524.09;5056041;28;20264;-92
2020/12/15 02:07:54;;;;;;;3.80;3.27;;;;;;;5.45;91.05;96510.00;5055907;28;20248;-92
2020/12/15 02:10:21;;;;;;;3.90;3.23;;;;;;;5.45;90.83;96508.22;5055844;28;20202;-91
2020/12/15 02:12:49;;;;;;;3.77;3.30;;;;;;;5.43;90.55;96507.47;5055868;28;20197;-92
2020/12/15 02:15:16;;;;;;;3.77;3.07;;;;;;;5.45;90.65;96512.59;5055964;28;20221;-91
2020/12/15 02:17:43;;;;;;;3.73;3.23;;;;;;;5.36;91.22;96503.72;5055857;28;20251;-90
2020/12/15 02:20:11;;;;;;;3.50;3.20;;;;;;;5.31;91.51;96520.66;5055541;28;20749;-91
2020/12/15 02:22:39;;;;;;;4.00;3.50;;;;;;;5.29;91.79;96517.34;5055520;28;20669;-91
2020/12/15 02:25:06;;;;;;;4.30;3.90;;;;;;;5.33;91.65;96509.16;5055329;28;20200;-91
2020/12/15 02:27:34;;;;;;;5.13;4.17;;;;;;;5.31;91.24;96507.63;5055383;28;20205;-91
2020/12/15 02:30:00;;;;;;;5.40;4.80;;;;;;;5.23;91.62;96521.28;5055122;28;20226;-91
2020/12/15 02:32:32;;;;;;;4.33;3.77;;;;;;;5.23;91.43;96509.06;5055385;28;20248;-91
2020/12/15 02:34:59;;;;;;;4.77;4.10;;;;;;;5.26;91.23;96528.81;5055571;28;20189;-91
2020/12/15 02:37:26;;;;;;;4.43;3.90;;;;;;;5.26;92.30;96521.00;5055705;28;20248;-91
2020/12/15 02:39:57;;;;;;;6.27;4.43;;;;;;;5.22;92.62;96514.38;5055153;28;20197;-91
2020/12/15 02:42:24;;;;;;;6.40;4.97;;;;;;;5.20;92.76;96527.53;5055255;28;20186;-91
2020/12/15 02:44:51;;;;;;;6.47;4.50;;;;;;;5.22;91.80;96535.22;5055294;28;20288;-92
2020/12/15 02:47:18;;;;;;;4.50;4.00;;;;;;;5.24;92.67;96538.56;5055038;28;20248;-90
2020/12/15 02:49:45;;;;;;;4.83;3.77;;;;;;;5.17;93.00;96551.22;5055297;28;20221;-91
2020/12/15 02:52:11;;;;;;;11.03;7.07;;;;;;;5.20;92.85;96550.19;5055039;28;20256;-90
2020/12/15 02:54:38;;;;;;;26.97;16.67;;;;;;;5.18;93.28;96559.88;5055433;28;20229;-90
2020/12/15 02:57:09;;;;;;;10.87;8.57;;;;;;;5.17;92.91;96545.19;5055291;28;20198;-90
2020/12/15 02:59:36;;;;;;;9.23;6.67;;;;;;;5.18;92.55;96552.06;5054880;28;20201;-90
2020/12/15 03:02:03;;;;;;;9.57;7.63;;;;;;;5.11;92.17;96549.09;5054720;28;20198;-89
2020/12/15 03:04:30;;;;;;;7.77;5.83;;;;;;;5.07;92.44;96559.88;5054800;28;20218;-90
2020/12/15 03:07:00;;;;;;;8.63;5.67;;;;;;;5.11;92.63;96558.69;5055078;28;20644;-90
2020/12/15 03:09:27;;;;;;;6.20;5.03;;;;;;;5.06;93.11;96552.97;5055017;28;20627;-90
2020/12/15 03:11:57;;;;;;;9.17;6.50;;;;;;;5.09;93.12;96560.56;5054936;28;20229;-89
2020/12/15 03:14:31;;;;;;;5.07;4.27;;;;;;;5.11;92.58;96572.53;5054141;28;20281;-89
2020/12/15 03:16:57;;;;;;;7.53;5.70;;;;;;;4.97;93.44;96571.00;5054430;28;20706;-88
2020/12/15 03:19:24;;;;;;;6.53;5.70;;;;;;;5.07;93.36;96570.28;5054774;28;20688;-89
2020/12/15 03:21:51;;;;;;;5.93;4.93;;;;;;;5.00;93.40;96567.31;5054106;28;20284;-90
2020/12/15 03:24:21;;;;;;;5.07;4.57;;;;;;;5.09;93.98;96565.78;5054330;28;20283;-90
2020/12/15 03:26:51;;;;;;;7.37;5.73;;;;;;;4.98;94.11;96559.59;5054284;28;20655;-90
2020/12/15 03:29:23;;;;;;;6.60;4.70;;;;;;;4.92;94.11;96567.91;5054548;28;20202;-90
2020/12/15 03:31:51;;;;;;;4.80;4.10;;;;;;;5.00;94.35;96564.72;5014599;28;20203;-90
2020/12/15 03:34:21;;;;;;;4.47;4.07;;;;;;;5.00;94.51;96575.97;5014763;28;20265;-89
2020/12/15 03:36:48;;;;;;;5.03;3.47;;;;;;;5.06;94.86;96579.03;5014468;28;20294;-91
2020/12/15 03:39:15;;;;;;;4.73;4.23;;;;;;;5.04;94.62;96588.75;5014182;28;20970;-91
2020/12/15 03:41:42;;;;;;;3.63;3.33;;;;;;;4.96;95.02;96595.38;5014789;28;20195;-91
2020/12/15 03:44:09;;;;;;;5.87;4.13;;;;;;;4.96;95.02;96592.78;5014503;28;20227;-91
2020/12/15 03:46:36;;;;;;;4.30;3.73;;;;;;;4.97;95.24;96601.41;5014475;28;20223;-92
2020/12/15 03:49:04;;;;;;;5.83;4.83;;;;;;;5.02;95.25;96604.50;5014241;28;20258;-91
2020/12/15 03:51:30;;;;;;;3.80;3.50;;;;;;;5.06;95.07;96610.31;5014599;28;20254;-91
2020/12/15 03:53:57;;;;;;;4.60;4.10;;;;;;;5.00;94.68;96620.25;5013938;28;20203;-91
2020/12/15 03:56:24;;;;;;;4.03;3.50;;;;;;;5.04;94.89;96609.59;5014398;28;20664;-90
2020/12/15 03:58:57;;;;;;;3.57;3.27;;;;;;;4.96;95.68;96624.03;5014252;28;20269;-91
2020/12/15 04:01:26;;;;;;;3.27;2.97;;;;;;;4.99;95.78;96623.81;5014177;28;20204;-91
2020/12/15 04:03:53;;;;;;;3.97;3.10;;;;;;;5.04;95.55;96630.44;5013994;28;20242;-91
2020/12/15 04:06:21;;;;;;;3.43;3.13;;;;;;;5.03;95.82;96641.81;5014275;28;20211;-92
2020/12/15 04:08:48;;;;;;;3.03;2.73;;;;;;;4.95;95.00;96629.34;5014397;28;20676;-92
2020/12/15 04:11:15;;;;;;;3.17;2.70;;;;;;;5.03;94.65;96644.44;5014323;28;20199;-94
2020/12/15 04:13:41;;;;;;;3.40;3.10;;;;;;;4.95;94.84;96638.03;5014157;28;20207;-91
2020/12/15 04:16:09;;;;;;;3.10;2.80;;;;;;;4.97;95.28;96637.88;5014194;28;20286;-91
2020/12/15 04:18:41;;;;;;;3.27;2.97;;;;;;;4.99;95.25;96634.22;5014057;28;20203;-91
2020/12/15 04:21:10;;;;;;;3.37;2.70;;;;;;;5.00;94.98;96638.47;5014037;28;20275;-91
2020/12/15 04:23:38;;;;;;;2.87;2.67;;;;;;;5.12;94.32;96647.16;5013668;28;20703;-92
2020/12/15 04:26:05;;;;;;;3.27;3.07;;;;;;;5.09;94.53;96642.19;5013849;28;20625;-92
2020/12/15 04:28:32;;;;;;;2.70;2.50;;;;;;;5.15;94.01;96657.34;5013875;28;20199;-91
2020/12/15 04:30:59;;;;;;;3.30;2.53;;;;;;;5.12;93.85;96654.97;5039836;28;20316;-91
2020/12/15 04:33:26;;;;;;;2.90;2.60;;;;;;;5.15;93.25;96661.72;5053116;28;20233;-90
2020/12/15 04:35:53;;;;;;;4.33;3.10;;;;;;;5.21;93.42;96669.91;5053762;28;20228;-92
2020/12/15 04:38:20;;;;;;;3.17;2.87;;;;;;;5.22;93.00;96666.34;5053428;28;20595;-91
2020/12/15 04:40:48;;;;;;;3.03;2.80;;;;;;;5.21;92.78;96661.28;5053368;28;20200;-90
2020/12/15 04:43:16;;;;;;;2.47;2.27;;;;;;;5.25;92.69;96673.13;5053092;28;20306;-91
2020/12/15 04:45:43;;;;;;;2.50;2.30;;;;;;;5.30;92.62;96670.16;5053044;28;20189;-90
2020/12/15 04:48:12;;;;;;;2.57;2.37;;;;;;;5.28;92.36;96669.47;5053079;28;20194;-92
2020/12/15 04:50:41;;;;;;;3.53;3.23;;;;;;;5.28;92.77;96682.50;5053591;28;20287;-91
2020/12/15 04:53:09;;;;;;;3.27;2.97;;;;;;;5.35;92.67;96673.25;5053513;28;20225;-91
2020/12/15 04:55:37;;;;;;;2.47;2.27;;;;;;;5.36;92.21;96690.53;5052528;28;20200;-92
2020/12/15 04:58:06;;;;;;;3.17;2.83;;;;;;;5.28;92.66;96688.53;5051826;28;20197;-93
2020/12/15 05:00:34;;;;;;;2.73;2.50;;;;;;;5.37;92.60;96684.38;5052128;28;20206;-92
2020/12/15 05:03:02;;;;;;;2.90;2.67;;;;;;;5.38;92.21;96673.84;5051994;28;20202;-91
2020/12/15 05:05:30;;;;;;;3.70;3.40;;;;;;;5.41;92.25;96683.22;5052520;28;20202;-91
2020/12/15 05:08:01;;;;;;;3.13;2.80;;;;;;;5.42;92.19;96688.31;5052326;28;20662;-93
2020/12/15 05:10:28;;;;;;;2.73;2.53;;;;;;;5.46;91.75;96694.94;5053319;28;20186;-86
2020/12/15 05:12:55;;;;;;;3.10;2.80;;;;;;;5.32;91.75;96692.56;5052272;28;20215;-92
2020/12/15 05:15:23;;;;;;;3.10;2.77;;;;;;;5.44;91.54;96694.25;5052744;28;20205;-92
2020/12/15 05:17:49;;;;;;;4.23;3.83;;;;;;;5.40;91.45;96685.00;5051948;28;20249;-89
2020/12/15 05:20:18;;;;;;;4.40;3.63;;;;;;;5.37;91.92;96690.44;5052037;28;20289;-91
2020/12/15 05:22:46;;;;;;;2.97;2.63;;;;;;;5.22;92.29;96694.19;5053049;28;20201;-91
2020/12/15 05:25:24;;;;;;;2.50;2.33;;;;;;;5.31;92.21;96698.72;5054212;28;20206;-90
2020/12/15 05:27:51;;;;;;;3.07;2.80;;;;;;;5.32;92.29;96692.56;5055205;28;20571;-90
2020/12/15 05:30:18;;;;;;;3.57;3.27;;;;;;;5.44;91.60;96702.06;5052816;28;20233;-91
2020/12/15 05:32:51;;;;;;;3.37;3.07;;;;;;;5.38;91.83;96715.56;5053157;28;20319;-92
2020/12/15 05:35:26;;;;;;;3.40;2.93;;;;;;;5.34;91.79;96708.09;5052615;28;20250;-91
2020/12/15 05:37:54;;;;;;;5.67;4.30;;;;;;;5.38;91.87;96710.34;5055683;28;20197;-93
2020/12/15 05:40:20;;;;;;;4.13;3.73;;;;;;;5.36;91.68;96707.00;5056492;28;20256;-91
2020/12/15 05:42:54;;;;;;;6.67;3.70;;;;;;;5.29;91.28;96718.84;5056427;28;20784;-92
2020/12/15 05:45:22;;;;;;;4.77;3.63;;;;;;;5.27;92.17;96718.16;5056396;28;20290;-92
2020/12/15 05:47:51;;;;;;;2.97;2.70;;;;;;;5.28;92.11;96718.97;5056679;28;20217;-91
2020/12/15 05:50:22;;;;;;;3.00;2.70;;;;;;;5.23;91.68;96717.56;5056480;28;20285;-91
2020/12/15 05:52:59;;;;;;;3.43;3.03;;;;;;;5.19;92.24;96720.47;5056735;28;20277;-92
2020/12/15 05:55:27;;;;;;;4.13;3.23;;;;;;;5.21;92.19;96724.63;5057051;28;20239;-89
2020/12/15 05:57:54;;;;;;;3.93;3.43;;;;;;;5.22;92.44;96739.31;5057183;28;20248;-93
2020/12/15 06:00:22;;;;;;;2.70;2.50;;;;;;;5.25;92.26;96733.88;5057229;28;20571;-93
2020/12/15 06:03:00;;;;;;;5.70;3.60;;;;;;;5.37;92.04;96747.78;5056919;28;20197;-94
2020/12/15 06:05:28;;;;;;;4.93;3.67;;;;;;;5.28;92.06;96745.88;5056910;28;20186;-93
2020/12/15 06:07:56;;;;;;;4.23;3.83;;;;;;;5.37;91.80;96755.63;5056036;28;20193;-93
2020/12/15 06:10:25;;;;;;;4.17;3.67;;;;;;;5.39;91.13;96753.72;5056286;28;20198;-93
2020/12/15 06:12:53;;;;;;;4.10;3.50;;;;;;;5.25;91.46;96765.16;5056426;28;20573;-93
2020/12/15 06:15:19;;;;;;;4.60;3.27;;;;;;;5.24;91.95;96760.06;5056371;28;20198;-92
2020/12/15 06:17:48;;;;;;;3.97;3.10;;;;;;;5.28;91.74;96771.94;5056745;28;20233;-92
2020/12/15 06:20:19;;;;;;;3.23;2.93;;;;;;;5.38;91.49;96772.91;5056380;28;20636;-93
2020/12/15 06:22:47;;;;;;;5.50;4.37;;;;;;;5.25;91.13;96778.19;5056278;28;20197;-92
2020/12/15 06:25:27;;;;;;;7.17;4.87;;;;;;;5.33;91.81;96780.22;5055521;28;20225;-93
2020/12/15 06:28:02;;;;;;;28.50;13.87;;;;;;;5.27;91.41;96765.06;5056097;28;20561;-92
2020/12/15 06:30:30;;;;;;;19.53;13.80;;;;;;;5.35;91.35;96769.69;5055425;28;20233;-92
2020/12/15 06:33:01;;;;;;;5.50;5.00;;;;;;;5.29;91.51;96770.16;5055513;28;20197;-93
2020/12/15 06:35:29;;;;;;;9.73;7.70;;;;;;;5.29;91.99;96785.78;5055521;28;20233;-93
2020/12/15 06:37:55;;;;;;;7.03;6.33;;;;;;;5.41;91.26;96780.50;5055630;28;20678;-92
2020/12/15 06:40:22;;;;;;;4.93;4.43;;;;;;;5.37;90.97;96784.28;5055694;28;20675;-92
2020/12/15 06:42:50;;;;;;;4.43;3.97;;;;;;;5.54;91.53;96783.00;5055417;28;20208;-92
2020/12/15 06:45:21;;;;;;;5.90;5.27;;;;;;;5.58;90.34;96781.03;5055062;28;20284;-93
2020/12/15 06:47:59;;;;;;;8.70;7.80;;;;;;;5.70;89.67;96782.69;5055040;28;20190;-93
2020/12/15 06:50:28;;;;;;;6.50;5.90;;;;;;;5.80;89.06;96781.06;5055057;28;20191;-92
2020/12/15 06:52:55;;;;;;;6.47;5.73;;;;;;;5.75;88.46;96783.19;5055263;28;20198;-93
2020/12/15 06:55:31;;;;;;;4.30;3.90;;;;;;;5.83;88.76;96793.88;5054967;28;20256;-93
2020/12/15 06:57:59;;;;;;;5.73;5.03;;;;;;;5.88;88.99;96796.13;5055110;28;20222;-93
2020/12/15 07:00:35;;;;;;;5.90;3.93;;;;;;;6.02;88.22;96792.50;5055014;28;20206;-93
2020/12/15 07:03:03;;;;;;;4.67;4.13;;;;;;;6.17;87.37;96791.34;5055202;28;20190;-93
2020/12/15 07:05:31;;;;;;;4.23;3.83;;;;;;;6.38;85.72;96791.44;5054857;28;20233;-93
2020/12/15 07:08:00;;;;;;;4.17;3.80;;;;;;;6.46;85.52;96796.06;5054848;28;20194;-93
2020/12/15 07:10:29;;;;;;;6.17;4.23;;;;;;;6.63;85.49;96800.78;5054743;28;20224;-93
2020/12/15 07:12:59;;;;;;;5.13;4.37;;;;;;;6.79;84.19;96798.63;5054752;28;20198;-93
2020/12/15 07:15:29;;;;;;;4.63;4.10;;;;;;;6.95;83.20;96797.38;5055170;28;20210;-90
2020/12/15 07:17:56;;;;;;;4.60;4.20;;;;;;;7.06;81.92;96797.34;5055930;28;20190;-93
2020/12/15 07:20:24;;;;;;;3.60;3.27;;;;;;;7.14;81.27;96802.81;5055231;28;20198;-93
2020/12/15 07:22:52;;;;;;;3.10;2.80;;;;;;;7.26;79.80;96801.78;5054598;28;20285;-93
2020/12/15 07:25:20;;;;;;;3.60;3.30;;;;;;;7.32;79.73;96806.53;5054552;28;20222;-91
2020/12/15 07:27:48;;;;;;;4.80;4.40;;;;;;;7.41;79.12;96806.72;5054616;28;20190;-92
2020/12/15 07:30:16;;;;;;;4.43;3.67;;;;;;;7.61;79.88;96806.75;5054232;28;20736;-92
2020/12/15 07:32:44;;;;;;;4.80;3.97;;;;;;;7.84;78.62;96810.06;5054490;28;20236;-90
2020/12/15 07:35:17;;;;;;;3.30;3.00;;;;;;;8.00;78.30;96819.25;5054318;28;20236;-92
2020/12/15 07:37:45;;;;;;;3.90;2.93;;;;;;;8.06;78.30;96824.78;5054714;28;20272;-92
2020/12/15 07:40:14;;;;;;;4.00;3.70;;;;;;;8.02;78.21;96820.78;5054475;28;20205;-91
2020/12/15 07:42:54;;;;;;;3.50;3.20;;;;;;;8.06;77.35;96822.19;5054657;28;20205;-91
2020/12/15 07:45:23;;;;;;;3.93;3.53;;;;;;;8.06;76.27;96822.19;5054246;28;20218;-91
2020/12/15 07:47:51;;;;;;;3.77;3.30;;;;;;;8.18;76.70;96829.97;5054382;28;20190;-92
2020/12/15 07:50:22;;;;;;;5.97;4.07;;;;;;;8.18;75.96;96825.56;5054646;28;20316;-92
2020/12/15 07:52:49;;;;;;;12.83;10.13;;;;;;;8.04;78.44;96818.06;5054075;28;20225;-92
2020/12/15 07:55:17;;;;;;;16.50;11.27;;;;;;;8.39;76.13;96829.97;5050948;28;20685;-91
2020/12/15 07:57:43;;;;;;;3.87;3.57;;;;;;;8.14;74.33;96828.56;5053638;28;20209;-91
2020/12/15 08:00:14;;;;;;;4.43;4.03;;;;;;;8.17;75.84;96834.34;5053840;28;20205;-91
2020/12/15 08:02:43;;;;;;;3.37;3.07;;;;;;;8.34;76.09;96819.84;5053792;28;20642;-92
2020/12/15 08:05:15;;;;;;;4.77;4.37;;;;;;;8.52;76.44;96831.41;5053604;28;20268;-90
2020/12/15 08:07:50;;;;;;;2.70;2.50;;;;;;;8.33;73.44;96821.63;5053699;28;20275;-92
2020/12/15 08:10:24;;;;;;;3.37;3.07;;;;;;;8.46;73.60;96829.31;5054127;28;20572;-92
2020/12/15 08:12:51;;;;;;;3.30;3.00;;;;;;;8.55;73.05;96823.25;5053726;28;20182;-92
2020/12/15 08:15:18;;;;;;;3.97;3.57;;;;;;;8.84;72.33;96826.97;5053743;28;20194;-92
2020/12/15 08:17:47;;;;;;;4.20;3.80;;;;;;;8.92;72.10;96820.06;5053680;28;20198;-92
2020/12/15 08:20:15;;;;;;;4.73;4.33;;;;;;;8.90;72.11;96822.00;5053704;28;20725;-91
2020/12/15 08:22:45;;;;;;;6.97;6.27;;;;;;;8.90;70.57;96808.91;5053683;28;20388;-92
2020/12/15 08:25:13;;;;;;;3.67;3.20;;;;;;;8.84;71.30;96832.19;5053028;28;20226;-92
2020/12/15 08:27:41;;;;;;;3.40;3.10;;;;;;;8.68;71.93;96823.03;5053218;28;20255;-91
2020/12/15 08:30:15;;;;;;;4.33;2.93;;;;;;;9.02;70.53;96830.59;5052876;28;20236;-91
2020/12/15 08:32:47;;;;;;;4.93;4.43;;;;;;;8.97;70.49;96817.03;5053701;28;20637;-91
2020/12/15 08:35:14;;;;;;;4.47;3.67;;;;;;;9.08;71.18;96827.44;5053673;28;20559;-92
2020/12/15 08:37:44;;;;;;;3.93;3.57;;;;;;;9.38;69.60;96836.13;5053381;28;20222;-92
2020/12/15 08:40:12;;;;;;;3.47;3.17;;;;;;;9.42;69.29;96827.03;5053369;28;20674;-92
2020/12/15 08:42:45;;;;;;;4.20;3.33;;;;;;;9.65;67.93;96833.66;5053411;28;20209;-92
2020/12/15 08:45:13;;;;;;;4.07;3.77;;;;;;;9.36;68.60;96840.72;5052951;28;20257;-93
2020/12/15 08:47:44;;;;;;;3.00;2.70;;;;;;;9.84;67.51;96832.00;5053207;28;20208;-92
2020/12/15 08:50:12;;;;;;;3.73;3.43;;;;;;;9.96;67.44;96847.44;5053048;28;20197;-92
2020/12/15 08:52:40;;;;;;;4.13;3.73;;;;;;;9.98;65.45;96842.06;5052984;28;20202;-92
2020/12/15 08:55:06;;;;;;;3.93;3.60;;;;;;;9.80;65.65;96841.09;5052961;28;20206;-92
2020/12/15 08:57:34;;;;;;;3.73;3.37;;;;;;;9.93;66.08;96839.03;5052857;28;20229;-91
2020/12/15 09:00:16;;;;;;;4.57;4.17;;;;;;;10.05;66.40;96835.28;5052960;28;20194;-92
2020/12/15 09:02:43;;;;;;;4.40;3.97;;;;;;;9.91;67.88;96843.59;5052827;28;20197;-92
2020/12/15 09:05:11;;;;;;;3.80;3.50;;;;;;;9.90;67.00;96840.13;5052677;28;20218;-91
2020/12/15 09:07:38;;;;;;;4.80;4.40;;;;;;;10.20;67.28;96849.63;5052713;28;20245;-91
2020/12/15 09:10:16;;;;;;;4.23;3.83;;;;;;;10.51;66.21;96835.47;5053215;28;20693;-91
2020/12/15 09:12:44;;;;;;;7.70;7.00;;;;;;;10.84;64.65;96844.56;5052595;28;20672;-92
2020/12/15 09:15:11;;;;;;;7.57;6.60;;;;;;;11.05;63.93;96841.69;5052921;28;20201;-92
2020/12/15 09:17:39;;;;;;;4.63;4.23;;;;;;;11.16;62.58;96837.06;5052743;28;20202;-92
2020/12/15 09:20:08;;;;;;;12.87;7.97;;;;;;;11.19;62.92;96830.69;5052518;28;20202;-92
2020/12/15 09:22:38;;;;;;;6.40;5.80;;;;;;;11.51;61.73;96834.63;5052513;28;20194;-93
2020/12/15 09:25:14;;;;;;;4.93;4.53;;;;;;;11.09;61.71;96835.19;5052488;28;20339;-92
2020/12/15 09:27:45;;;;;;;9.90;6.83;;;;;;;11.40;62.45;96833.03;5052498;28;20197;-92
2020/12/15 09:30:13;;;;;;;4.07;3.77;;;;;;;11.68;61.11;96838.22;5052321;28;20240;-92
2020/12/15 09:32:42;;;;;;;4.53;4.13;;;;;;;11.79;60.04;96844.06;5052650;28;20228;-93
2020/12/15 09:35:10;;;;;;;4.13;3.73;;;;;;;11.57;61.47;96852.41;5052368;28;20251;-93
2020/12/15 09:37:38;;;;;;;4.03;3.73;;;;;;;11.68;60.29;96844.31;5052349;28;20201;-93
2020/12/15 09:40:08;;;;;;;4.23;3.83;;;;;;;11.76;60.77;96844.38;5052584;28;20577;-92
2020/12/15 09:42:35;;;;;;;2.97;2.67;;;;;;;11.58;59.93;96854.09;5052663;28;20224;-93
2020/12/15 09:45:03;;;;;;;3.23;2.93;;;;;;;11.70;61.39;96842.34;5052124;28;20217;-92
2020/12/15 09:47:30;;;;;;;3.83;3.37;;;;;;;11.87;59.60;96835.44;5052641;28;20579;-93
2020/12/15 09:49:58;;;;;;;3.37;3.07;;;;;;;11.71;59.61;96835.25;5052734;28;20194;-92
2020/12/15 09:52:25;;;;;;;3.40;3.10;;;;;;;11.83;59.19;96832.25;5052813;28;20273;-92
2020/12/15 09:54:52;;;;;;;3.73;3.43;;;;;;;11.50;59.42;96833.78;5052906;28;20194;-93
2020/12/15 09:57:19;;;;;;;4.47;3.50;;;;;;;11.91;57.70;96823.59;5052222;28;20198;-92
2020/12/15 09:59:46;;;;;;;7.90;5.33;;;;;;;11.97;58.69;96830.09;5052509;28;20198;-94
2020/12/15 10:02:13;;;;;;;4.07;3.60;;;;;;;11.62;59.65;96837.00;5052119;28;20233;-93
2020/12/15 10:04:40;;;;;;;3.90;3.50;;;;;;;11.88;59.71;96831.81;5053373;28;20222;-92
2020/12/15 10:07:07;;;;;;;3.60;3.30;;;;;;;11.90;59.02;96838.59;5052428;28;20197;-93
2020/12/15 10:09:34;;;;;;;3.43;3.13;;;;;;;12.01;58.97;96845.41;5052541;28;20293;-91
2020/12/15 10:12:01;;;;;;;3.43;3.13;;;;;;;11.69;58.69;96830.16;5052822;28;20328;-94
2020/12/15 10:14:28;;;;;;;3.97;3.27;;;;;;;12.07;58.39;96822.91;5052530;28;20201;-92
2020/12/15 10:16:55;;;;;;;4.40;4.00;;;;;;;12.13;58.15;96825.75;5052425;28;20194;-93
2020/12/15 10:19:22;;;;;;;5.00;4.50;;;;;;;12.41;57.08;96844.06;5052531;28;20678;-92
2020/12/15 10:21:54;;;;;;;4.20;3.80;;;;;;;12.24;56.01;96839.66;5052052;28;20209;-94
2020/12/15 10:24:21;;;;;;;3.07;2.87;;;;;;;12.34;57.03;96832.47;5054269;28;20212;-94
2020/12/15 10:26:48;;;;;;;4.27;3.97;;;;;;;12.59;56.44;96841.34;5056022;28;20733;-93
2020/12/15 10:29:15;;;;;;;5.17;3.20;;;;;;;12.54;55.17;96841.00;5056054;28;20228;-93
2020/12/15 10:31:46;;;;;;;3.67;3.37;;;;;;;12.69;56.31;96833.31;5055733;28;20232;-93
2020/12/15 10:34:13;;;;;;;3.40;3.10;;;;;;;12.58;54.74;96829.97;5056535;28;20198;-93
2020/12/15 10:36:40;;;;;;;3.93;3.53;;;;;;;12.70;56.95;96832.34;5056157;28;20281;-93
2020/12/15 10:39:07;;;;;;;3.20;2.90;;;;;;;13.31;53.48;96821.53;5055847;28;20205;-93
2020/12/15 10:41:39;;;;;;;4.17;3.77;;;;;;;12.44;54.07;96833.19;5055578;28;20632;-92
2020/12/15 10:44:12;;;;;;;3.53;3.23;;;;;;;12.79;55.11;96815.56;5056260;28;20640;-93
2020/12/15 10:46:39;;;;;;;6.50;3.77;;;;;;;12.84;56.32;96823.81;5055341;28;20281;-94
2020/12/15 10:49:06;;;;;;;3.60;3.30;;;;;;;13.31;54.20;96812.78;5055399;28;20229;-93
2020/12/15 10:51:33;;;;;;;3.53;3.23;;;;;;;13.46;53.82;96821.69;5055218;28;20235;-93
2020/12/15 10:54:00;;;;;;;4.43;3.70;;;;;;;13.24;53.74;96815.25;5055380;28;20675;-93
2020/12/15 10:56:27;;;;;;;4.23;2.97;;;;;;;13.43;52.99;96813.28;5055394;28;20638;-93
2020/12/15 10:58:55;;;;;;;3.57;3.37;;;;;;;13.38;53.17;96810.31;5055110;28;20229;-93
2020/12/15 11:01:22;;;;;;;2.83;2.63;;;;;;;13.08;53.23;96815.97;5055459;28;20209;-93
2020/12/15 11:03:49;;;;;;;4.57;4.17;;;;;;;13.34;54.14;96817.75;5055180;28;20223;-92
2020/12/15 11:06:15;;;;;;;3.70;3.40;;;;;;;13.27;53.74;96806.19;5054965;28;20282;-93
2020/12/15 11:08:42;;;;;;;3.53;3.20;;;;;;;13.27;54.86;96803.53;5055298;28;20722;-93
2020/12/15 11:11:11;;;;;;;3.77;3.17;;;;;;;13.19;54.70;96808.75;5054983;28;20202;-92
2020/12/15 11:13:38;;;;;;;3.57;3.27;;;;;;;13.21;55.13;96804.16;5055255;28;20738;-93
2020/12/15 11:16:06;;;;;;;4.33;3.93;;;;;;;13.16;54.11;96795.88;5054909;28;20192;-93
2020/12/15 11:18:33;;;;;;;3.90;3.50;;;;;;;13.15;53.60;96795.06;5054937;28;20222;-92
2020/12/15 11:21:00;;;;;;;3.90;3.50;;;;;;;13.30;54.29;96787.34;5054820;28;20198;-93
2020/12/15 11:23:27;;;;;;;4.93;3.83;;;;;;;13.56;52.94;96792.50;5054344;28;20195;-93
2020/12/15 11:25:54;;;;;;;3.50;3.20;;;;;;;13.40;53.52;96795.13;5054819;28;20273;-93
2020/12/15 11:28:21;;;;;;;3.43;3.13;;;;;;;13.27;54.54;96790.34;5054484;28;20199;-92
2020/12/15 11:30:47;;;;;;;3.80;3.40;;;;;;;13.29;53.82;96786.53;5054309;28;20229;-93
2020/12/15 11:33:15;;;;;;;3.60;3.30;;;;;;;13.26;53.23;96792.13;5054270;28;20198;-93
2020/12/15 11:35:42;;;;;;;3.50;3.20;;;;;;;13.54;52.79;96792.69;5053864;28;20196;-93
2020/12/15 11:38:09;;;;;;;3.67;3.23;;;;;;;13.31;53.27;96794.31;5054354;28;20198;-93
2020/12/15 11:40:35;;;;;;;3.30;3.07;;;;;;;13.18;52.93;96786.81;5054225;28;20240;-94
2020/12/15 11:43:02;;;;;;;3.70;3.40;;;;;;;13.64;53.15;96775.81;5054192;28;20687;-93
2020/12/15 11:45:29;;;;;;;4.93;3.20;;;;;;;13.39;51.78;96788.19;5054314;28;20729;-93